Terminal Aerodrome Forecast
Issued by NWS

Home | Current Version | Previous Version | Text Only | Print | Product List | Glossary On
Versions: 1 2 3 4 5 6 7 8 9 10 11 12 13 14 15 16 17 18
000
FTUS43 KILX 091739
TAFCMI
TAF
KCMI 091739Z 0918/1018 02019G29KT P6SM VCSH OVC008
     FM092000 02019G29KT P6SM OVC015
     FM100000 02014KT P6SM SCT035
     FM100300 02006KT P6SM SCT250
     FM101600 04008KT P6SM SCT090 BKN250=

USA.gov is the U.S. government's official web portal to all federal, state and local government web resources and services.